Corpus Christi — WDC2785 — position and weather

sailwx.info

Track history (hours):
 
Tides and Currents Weather Stations Pressure Air Temp Water Temp Dewpoint Dewpoint Depression Visibility Wind Speed Wind Dir Waves Ship Positions

Corpus Christi

Owner: Marquette Transportation Company Gulf-Inland, LLC, Jefferson, LA. More information available from US FCC via Universal Licensing System and Coast Guard Vessel Documentation Center.

Last reported at 2018-May-25 09:39 UTC. Time now 2018-May-25 10:50 UTC.
Position N 29°22' W 094°54'.

Length 102 m; draft 2.7 m.

Type: . MMSI: 366997690.

Date/timePositionNaut miles runAvg speedWind from/ knotsBaromVisibWave heightAir tempDewpointWater temp
2018-May-25 09:39N 29°22' W 094°54'0 0.0
2018-May-25 09:30N 29°22' W 094°54'0 0.0
2018-May-25 09:00N 29°22' W 094°54'0 0.0
2018-May-25 08:30N 29°22' W 094°54'0 0.0
2018-May-25 08:00N 29°22' W 094°54'0 0.0
2018-May-25 07:30N 29°22' W 094°54'0 0.0
2018-May-25 06:56N 29°22' W 094°54'0 0.0
2018-May-25 06:25N 29°22' W 094°54'0 0.0
2018-May-25 06:00N 29°22' W 094°54'0 0.0
2018-May-25 05:30N 29°22' W 094°54'0 0.0
2018-May-25 05:01N 29°22' W 094°54'0 0.0
2018-May-25 04:30N 29°22' W 094°54'0 0.0
2018-May-25 04:00N 29°22' W 094°54'0 0.0
2018-May-25 03:28N 29°22' W 094°54'0 0.0
2018-May-25 03:01N 29°22' W 094°54'0 0.0
2018-May-25 02:30N 29°22' W 094°54'0 0.0
2018-May-25 02:01N 29°22' W 094°54'0 0.0
2018-May-25 01:30N 29°22' W 094°54'0 0.1
2018-May-25 01:00N 29°22' W 094°54'0 0.0
2018-May-25 00:30N 29°22' W 094°54'0 0.0
2018-May-25 00:01N 29°22' W 094°54'0 0.0
2018-May-24 23:30N 29°22' W 094°54'0 0.0
2018-May-24 23:00N 29°22' W 094°54'0 0.0
2018-May-24 22:30N 29°22' W 094°54'0 0.0
2018-May-24 22:00N 29°22' W 094°54'0 0.0
2018-May-24 21:30N 29°22' W 094°54'0 0.0
2018-May-24 21:00N 29°22' W 094°54'0 0.0
2018-May-24 20:30N 29°22' W 094°54'0 0.0
2018-May-24 20:00N 29°22' W 094°54'0 0.0
2018-May-24 19:30N 29°22' W 094°54'0 0.0
2018-May-24 19:00N 29°22' W 094°54'0 0.0
2018-May-24 18:30N 29°22' W 094°54'0 0.0
2018-May-24 18:00N 29°22' W 094°54'0 0.0
2018-May-24 17:30N 29°22' W 094°54'0 0.0
2018-May-24 17:01N 29°22' W 094°54'0 0.0
2018-May-24 16:30N 29°22' W 094°54'0 0.0
2018-May-24 16:00N 29°22' W 094°54'0 0.0
2018-May-24 15:31N 29°22' W 094°54'0 0.0
2018-May-24 15:00N 29°22' W 094°54'0 0.0
2018-May-24 14:30N 29°22' W 094°54'0 0.0
2018-May-24 14:00N 29°22' W 094°54'0 0.0
2018-May-24 13:30N 29°22' W 094°54'10 0.8
2018-May-24 00:28N 29°25' W 094°43'3 3.0
2018-May-23 23:37N 29°24' W 094°46'1 5.6
2018-May-23 23:28N 29°23' W 094°46'2 4.2
2018-May-23 23:00N 29°23' W 094°49'10 7.3
2018-May-23 21:40N 29°32' W 094°54'1 6.1
2018-May-23 21:30N 29°32' W 094°54'3 6.3
2018-May-23 21:00N 29°35' W 094°56'3 6.4
2018-May-23 20:30N 29°38' W 094°58'3 6.6
2018-May-23 20:00N 29°41' W 094°59'4 5.7
2018-May-23 19:14N 29°44' W 095°03'4 0.1
2018-May-22 13:39N 29°48' W 095°04'  
2018-May-18 11:28N 29°47' W 095°04'0 0.2
2018-May-18 10:38N 29°47' W 095°04'0 0.0
2018-May-18 10:30N 29°47' W 095°04'0 0.2
2018-May-18 10:00N 29°47' W 095°04'0 0.2
2018-May-18 09:30N 29°47' W 095°04'0 0.0
2018-May-18 09:00N 29°47' W 095°04'0 0.0
2018-May-18 08:30N 29°47' W 095°04'0 0.0
2018-May-18 08:00N 29°47' W 095°04'0 0.0
2018-May-18 07:30N 29°47' W 095°04'0 0.0
2018-May-18 07:00N 29°47' W 095°04'0 0.1
2018-May-18 06:29N 29°47' W 095°04'0 0.1
2018-May-18 06:00N 29°47' W 095°04'0 0.0
2018-May-18 05:30N 29°47' W 095°04'0 0.3
2018-May-18 04:59N 29°47' W 095°04'0 0.3
2018-May-18 04:30N 29°47' W 095°04'0 0.3
2018-May-18 04:00N 29°47' W 095°04'0 0.6
2018-May-18 03:30N 29°47' W 095°04'0 0.0
2018-May-18 03:00N 29°47' W 095°04'0 0.0
2018-May-18 02:30N 29°47' W 095°04'0 0.0
2018-May-18 02:00N 29°47' W 095°04'0 0.0
2018-May-17 13:23N 29°47' W 095°04'0 0.0
2018-May-17 12:45N 29°47' W 095°04'0 0.0
2018-May-17 12:28N 29°47' W 095°04'0 0.0
2018-May-17 12:00N 29°47' W 095°04'0 0.0
2018-May-17 10:06N 29°47' W 095°04'0 0.0
2018-May-17 09:36N 29°47' W 095°04'0 0.0
2018-May-17 09:29N 29°47' W 095°04'0 0.0
2018-May-17 09:00N 29°47' W 095°04'0 0.0
2018-May-17 08:08N 29°47' W 095°04'0 0.0
2018-May-17 05:55N 29°47' W 095°04'0 0.0
2018-May-17 05:16N 29°47' W 095°04'0 0.0
2018-May-17 05:00N 29°47' W 095°04'0 0.0
2018-May-17 04:25N 29°47' W 095°04'0 0.0
2018-May-17 03:58N 29°47' W 095°04'0 0.0
2018-May-17 03:30N 29°47' W 095°04'0 0.0
2018-May-17 03:00N 29°47' W 095°04'0 0.0
2018-May-17 02:29N 29°47' W 095°04'0 0.0
2018-May-17 01:54N 29°47' W 095°04'0 0.0
2018-May-16 14:21N 29°47' W 095°04'0 0.0
2018-May-16 13:49N 29°47' W 095°04'0 0.0
2018-May-16 13:30N 29°47' W 095°04'0 0.3
2018-May-16 12:59N 29°47' W 095°04'0 0.0
2018-May-16 12:29N 29°47' W 095°04'0 0.1
2018-May-16 12:00N 29°47' W 095°04'0 0.1
2018-May-16 11:30N 29°47' W 095°04'2 3.3
2018-May-16 11:00N 29°46' W 095°06'2 3.2
2018-May-16 10:27N 29°47' W 095°04'0 0.4
2018-May-16 10:00N 29°47' W 095°04'0 0.5
2018-May-16 09:30N 29°47' W 095°04'0 0.0
2018-May-16 09:00N 29°47' W 095°04'0 0.0
2018-May-16 08:30N 29°47' W 095°04'0 0.0
2018-May-16 08:00N 29°47' W 095°04'0 0.0
2018-May-16 07:30N 29°47' W 095°04'0 0.0
2018-May-16 07:00N 29°47' W 095°04'0 0.0
2018-May-16 06:30N 29°47' W 095°04'0 0.0
2018-May-16 06:00N 29°47' W 095°04'0 0.0
2018-May-16 05:30N 29°47' W 095°04'0 0.0
2018-May-16 05:00N 29°47' W 095°04'0 0.0
2018-May-16 04:30N 29°47' W 095°04'0 0.0
2018-May-16 04:00N 29°47' W 095°04'0 0.0
2018-May-16 03:30N 29°47' W 095°04'0 0.0
2018-May-16 03:00N 29°47' W 095°04'0 0.0
2018-May-16 02:30N 29°47' W 095°04'0 0.4
2018-May-16 02:00N 29°47' W 095°04'0 0.0
2018-May-15 14:32N 29°47' W 095°04'0 0.0
2018-May-15 14:30N 29°47' W 095°04'0 0.5
2018-May-15 14:00N 29°47' W 095°04'0 0.7
2018-May-15 13:30N 29°47' W 095°04'2 4.0
2018-May-15 12:59N 29°46' W 095°05'1 2.1
2018-May-15 12:28N 29°45' W 095°06'0 0.0
2018-May-15 11:51N 29°45' W 095°06'0 0.1
2018-May-15 11:24N 29°45' W 095°06'0 1.1
2018-May-15 11:00N 29°45' W 095°06'2 4.9
2018-May-15 10:30N 29°47' W 095°04'0 1.0
2018-May-15 10:00N 29°48' W 095°04'  
Track history (hours):
 
Tides and Currents Weather Stations Pressure Air Temp Water Temp Dewpoint Dewpoint Depression Visibility Wind Speed Wind Dir Waves Ship Positions

Corpus Christi

Owner: Marquette Transportation Company Gulf-Inland, LLC, Jefferson, LA. More information available from US FCC via Universal Licensing System and Coast Guard Vessel Documentation Center.

Last reported at 2018-May-25 09:39 UTC. Time now 2018-May-25 10:51 UTC.
Position N 29°22' W 094°54'.

Length 102 m; draft 2.7 m.

Type: . MMSI: 366997690.

Date/timePositionNaut miles runAvg speedWind from/ knotsBaromVisibWave heightAir tempDewpointWater temp
2018-May-25 09:39N 29°22' W 094°54'0 0.0
2018-May-25 09:30N 29°22' W 094°54'0 0.0
2018-May-25 09:00N 29°22' W 094°54'0 0.0
2018-May-25 08:30N 29°22' W 094°54'0 0.0
2018-May-25 08:00N 29°22' W 094°54'0 0.0
2018-May-25 07:30N 29°22' W 094°54'0 0.0
2018-May-25 06:56N 29°22' W 094°54'0 0.0
2018-May-25 06:25N 29°22' W 094°54'0 0.0
2018-May-25 06:00N 29°22' W 094°54'0 0.0
2018-May-25 05:30N 29°22' W 094°54'0 0.0
2018-May-25 05:01N 29°22' W 094°54'0 0.0
2018-May-25 04:30N 29°22' W 094°54'0 0.0
2018-May-25 04:00N 29°22' W 094°54'0 0.0
2018-May-25 03:28N 29°22' W 094°54'0 0.0
2018-May-25 03:01N 29°22' W 094°54'0 0.0
2018-May-25 02:30N 29°22' W 094°54'0 0.0
2018-May-25 02:01N 29°22' W 094°54'0 0.0
2018-May-25 01:30N 29°22' W 094°54'0 0.1
2018-May-25 01:00N 29°22' W 094°54'0 0.0
2018-May-25 00:30N 29°22' W 094°54'0 0.0
2018-May-25 00:01N 29°22' W 094°54'0 0.0
2018-May-24 23:30N 29°22' W 094°54'0 0.0
2018-May-24 23:00N 29°22' W 094°54'0 0.0
2018-May-24 22:30N 29°22' W 094°54'0 0.0
2018-May-24 22:00N 29°22' W 094°54'0 0.0
2018-May-24 21:30N 29°22' W 094°54'0 0.0
2018-May-24 21:00N 29°22' W 094°54'0 0.0
2018-May-24 20:30N 29°22' W 094°54'0 0.0
2018-May-24 20:00N 29°22' W 094°54'0 0.0
2018-May-24 19:30N 29°22' W 094°54'0 0.0
2018-May-24 19:00N 29°22' W 094°54'0 0.0
2018-May-24 18:30N 29°22' W 094°54'0 0.0
2018-May-24 18:00N 29°22' W 094°54'0 0.0
2018-May-24 17:30N 29°22' W 094°54'0 0.0
2018-May-24 17:01N 29°22' W 094°54'0 0.0
2018-May-24 16:30N 29°22' W 094°54'0 0.0
2018-May-24 16:00N 29°22' W 094°54'0 0.0
2018-May-24 15:31N 29°22' W 094°54'0 0.0
2018-May-24 15:00N 29°22' W 094°54'0 0.0
2018-May-24 14:30N 29°22' W 094°54'0 0.0
2018-May-24 14:00N 29°22' W 094°54'0 0.0
2018-May-24 13:30N 29°22' W 094°54'10 0.8
2018-May-24 00:28N 29°25' W 094°43'3 3.0
2018-May-23 23:37N 29°24' W 094°46'1 5.6
2018-May-23 23:28N 29°23' W 094°46'2 4.2
2018-May-23 23:00N 29°23' W 094°49'10 7.3
2018-May-23 21:40N 29°32' W 094°54'1 6.1
2018-May-23 21:30N 29°32' W 094°54'3 6.3
2018-May-23 21:00N 29°35' W 094°56'3 6.4
2018-May-23 20:30N 29°38' W 094°58'3 6.6
2018-May-23 20:00N 29°41' W 094°59'4 5.7
2018-May-23 19:14N 29°44' W 095°03'4 0.1
2018-May-22 13:39N 29°48' W 095°04'  
2018-May-18 11:28N 29°47' W 095°04'0 0.2
2018-May-18 10:38N 29°47' W 095°04'0 0.0
2018-May-18 10:30N 29°47' W 095°04'0 0.2
2018-May-18 10:00N 29°47' W 095°04'0 0.2
2018-May-18 09:30N 29°47' W 095°04'0 0.0
2018-May-18 09:00N 29°47' W 095°04'0 0.0
2018-May-18 08:30N 29°47' W 095°04'0 0.0
2018-May-18 08:00N 29°47' W 095°04'0 0.0
2018-May-18 07:30N 29°47' W 095°04'0 0.0
2018-May-18 07:00N 29°47' W 095°04'0 0.1
2018-May-18 06:29N 29°47' W 095°04'0 0.1
2018-May-18 06:00N 29°47' W 095°04'0 0.0
2018-May-18 05:30N 29°47' W 095°04'0 0.3
2018-May-18 04:59N 29°47' W 095°04'0 0.3
2018-May-18 04:30N 29°47' W 095°04'0 0.3
2018-May-18 04:00N 29°47' W 095°04'0 0.6
2018-May-18 03:30N 29°47' W 095°04'0 0.0
2018-May-18 03:00N 29°47' W 095°04'0 0.0
2018-May-18 02:30N 29°47' W 095°04'0 0.0
2018-May-18 02:00N 29°47' W 095°04'0 0.0
2018-May-17 13:23N 29°47' W 095°04'0 0.0
2018-May-17 12:45N 29°47' W 095°04'0 0.0
2018-May-17 12:28N 29°47' W 095°04'0 0.0
2018-May-17 12:00N 29°47' W 095°04'0 0.0
2018-May-17 10:06N 29°47' W 095°04'0 0.0
2018-May-17 09:36N 29°47' W 095°04'0 0.0
2018-May-17 09:29N 29°47' W 095°04'0 0.0
2018-May-17 09:00N 29°47' W 095°04'0 0.0
2018-May-17 08:08N 29°47' W 095°04'0 0.0
2018-May-17 05:55N 29°47' W 095°04'0 0.0
2018-May-17 05:16N 29°47' W 095°04'0 0.0
2018-May-17 05:00N 29°47' W 095°04'0 0.0
2018-May-17 04:25N 29°47' W 095°04'0 0.0
2018-May-17 03:58N 29°47' W 095°04'0 0.0
2018-May-17 03:30N 29°47' W 095°04'0 0.0
2018-May-17 03:00N 29°47' W 095°04'0 0.0
2018-May-17 02:29N 29°47' W 095°04'0 0.0
2018-May-17 01:54N 29°47' W 095°04'0 0.0
2018-May-16 14:21N 29°47' W 095°04'0 0.0
2018-May-16 13:49N 29°47' W 095°04'0 0.0
2018-May-16 13:30N 29°47' W 095°04'0 0.3
2018-May-16 12:59N 29°47' W 095°04'0 0.0
2018-May-16 12:29N 29°47' W 095°04'0 0.1
2018-May-16 12:00N 29°47' W 095°04'0 0.1
2018-May-16 11:30N 29°47' W 095°04'2 3.3
2018-May-16 11:00N 29°46' W 095°06'2 3.2
2018-May-16 10:27N 29°47' W 095°04'0 0.4
2018-May-16 10:00N 29°47' W 095°04'0 0.5
2018-May-16 09:30N 29°47' W 095°04'0 0.0
2018-May-16 09:00N 29°47' W 095°04'0 0.0
2018-May-16 08:30N 29°47' W 095°04'0 0.0
2018-May-16 08:00N 29°47' W 095°04'0 0.0
2018-May-16 07:30N 29°47' W 095°04'0 0.0
2018-May-16 07:00N 29°47' W 095°04'0 0.0
2018-May-16 06:30N 29°47' W 095°04'0 0.0
2018-May-16 06:00N 29°47' W 095°04'0 0.0
2018-May-16 05:30N 29°47' W 095°04'0 0.0
2018-May-16 05:00N 29°47' W 095°04'0 0.0
2018-May-16 04:30N 29°47' W 095°04'0 0.0
2018-May-16 04:00N 29°47' W 095°04'0 0.0
2018-May-16 03:30N 29°47' W 095°04'0 0.0
2018-May-16 03:00N 29°47' W 095°04'0 0.0
2018-May-16 02:30N 29°47' W 095°04'0 0.4
2018-May-16 02:00N 29°47' W 095°04'0 0.0
2018-May-15 14:32N 29°47' W 095°04'0 0.0
2018-May-15 14:30N 29°47' W 095°04'0 0.5
2018-May-15 14:00N 29°47' W 095°04'0 0.7
2018-May-15 13:30N 29°47' W 095°04'2 4.0
2018-May-15 12:59N 29°46' W 095°05'1 2.1
2018-May-15 12:28N 29°45' W 095°06'0 0.0
2018-May-15 11:51N 29°45' W 095°06'0 0.1
2018-May-15 11:24N 29°45' W 095°06'0 1.1
2018-May-15 11:00N 29°45' W 095°06'2 4.9
2018-May-15 10:30N 29°47' W 095°04'0 1.0
2018-May-15 10:00N 29°48' W 095°04'  

Dump ship's entire track history